createdAt,value
2017-07-11T00:00:47.093Z,74.20
2017-07-11T00:03:15.923Z,74.30
2017-07-11T00:05:43.999Z,74.10
2017-07-11T00:08:12.099Z,74.20
2017-07-11T00:10:40.169Z,74.90
2017-07-11T00:13:08.244Z,74.70
2017-07-11T00:15:36.321Z,74.20
2017-07-11T00:18:04.387Z,74.60
2017-07-11T00:20:32.487Z,74.60
2017-07-11T00:23:00.539Z,74.70
2017-07-11T00:25:28.607Z,74.40
2017-07-11T00:27:56.699Z,73.80
2017-07-11T00:30:24.767Z,74.60
2017-07-11T00:32:52.836Z,74.10
2017-07-11T00:35:20.914Z,74.00
2017-07-11T00:37:48.978Z,74.70
2017-07-11T00:40:17.051Z,74.40
2017-07-11T00:42:45.149Z,74.30
2017-07-11T00:45:13.213Z,73.80
2017-07-11T00:47:41.288Z,74.30
2017-07-11T00:50:09.359Z,75.50
2017-07-11T00:52:37.425Z,74.70
2017-07-11T00:55:05.516Z,74.50
2017-07-11T00:57:34.349Z,74.80
2017-07-11T01:00:02.458Z,74.70
2017-07-11T01:02:30.551Z,74.70
2017-07-11T01:04:59.377Z,74.00
2017-07-11T01:07:27.442Z,74.00
2017-07-11T01:09:55.526Z,74.90
2017-07-11T01:12:23.617Z,75.20
2017-07-11T01:14:51.684Z,74.30
2017-07-11T01:17:19.780Z,73.80
2017-07-11T01:19:47.852Z,73.40
2017-07-11T01:22:15.922Z,73.60
2017-07-11T01:24:44.003Z,73.50
2017-07-11T01:27:12.846Z,74.00
2017-07-11T01:29:40.908Z,74.10
2017-07-11T01:32:08.978Z,74.20
2017-07-11T01:34:37.051Z,74.30
2017-07-11T01:37:05.130Z,74.20
2017-07-11T01:39:33.191Z,74.10
2017-07-11T01:42:01.268Z,74.30
2017-07-11T01:44:29.342Z,74.70
2017-07-11T01:46:57.420Z,74.60
2017-07-11T01:49:25.475Z,74.60
2017-07-11T01:51:53.551Z,74.00
2017-07-11T01:54:21.616Z,73.70
2017-07-11T01:56:49.688Z,73.50
2017-07-11T01:59:17.758Z,74.50
2017-07-11T02:01:45.834Z,74.60
2017-07-11T02:04:13.932Z,74.60
2017-07-11T02:06:41.983Z,74.20
2017-07-11T02:09:10.052Z,74.40
2017-07-11T02:11:38.137Z,74.40
2017-07-11T02:14:06.172Z,73.90
2017-07-11T02:16:34.227Z,74.00
2017-07-11T02:19:02.318Z,74.60
2017-07-11T02:21:30.372Z,74.50
2017-07-11T02:23:58.430Z,74.10
2017-07-11T02:26:26.512Z,73.80
2017-07-11T02:28:54.575Z,73.30
2017-07-11T02:31:22.642Z,73.50
2017-07-11T02:33:50.691Z,74.60
2017-07-11T02:36:18.753Z,75.80
2017-07-11T02:38:47.611Z,75.50
2017-07-11T02:41:15.678Z,75.50
2017-07-11T02:43:43.734Z,75.70
2017-07-11T02:46:11.800Z,75.10
2017-07-11T02:48:39.859Z,76.20
2017-07-11T02:51:08.640Z,76.10
2017-07-11T02:53:37.444Z,76.50
2017-07-11T02:56:05.506Z,76.40
2017-07-11T02:58:33.577Z,75.90
2017-07-11T03:01:01.643Z,75.20
2017-07-11T03:03:29.723Z,76.10
2017-07-11T03:05:57.788Z,76.20
2017-07-11T03:08:25.856Z,76.70
2017-07-11T03:10:54.367Z,76.80
2017-07-11T03:13:22.484Z,76.10
2017-07-11T03:15:51.290Z,77.00
2017-07-11T03:18:19.359Z,75.80
2017-07-11T03:20:47.428Z,75.90
2017-07-11T03:23:15.503Z,75.10
2017-07-11T03:25:43.567Z,75.90
2017-07-11T03:28:11.636Z,75.20
2017-07-11T03:30:39.704Z,75.10
2017-07-11T03:33:07.769Z,75.30
2017-07-11T03:35:35.851Z,74.60
2017-07-11T03:38:03.910Z,74.60
2017-07-11T03:40:31.992Z,74.40
2017-07-11T03:43:00.066Z,73.80
2017-07-11T03:45:28.118Z,73.90
2017-07-11T03:47:56.189Z,72.80
2017-07-11T03:50:24.267Z,72.40
2017-07-11T03:52:52.338Z,73.20
2017-07-11T03:55:20.424Z,73.50
2017-07-11T03:57:49.151Z,72.70
2017-07-11T04:00:17.203Z,73.20
2017-07-11T04:02:45.279Z,72.90
2017-07-11T04:05:13.333Z,72.70
2017-07-11T04:07:41.400Z,72.50
2017-07-11T04:10:09.470Z,71.40
2017-07-11T04:12:37.536Z,70.40
2017-07-11T04:15:05.588Z,71.20
2017-07-11T04:17:33.658Z,71.50
2017-07-11T04:20:01.719Z,70.60
2017-07-11T04:22:29.788Z,69.80
2017-07-11T04:24:57.857Z,70.80
2017-07-11T04:27:25.953Z,71.20
2017-07-11T04:29:54.007Z,72.70
2017-07-11T04:32:22.071Z,72.20
2017-07-11T04:34:50.152Z,72.40
2017-07-11T04:37:18.211Z,72.20
2017-07-11T04:39:46.303Z,71.40
2017-07-11T04:42:14.356Z,72.70
2017-07-11T04:44:42.425Z,73.10
2017-07-11T04:47:10.496Z,72.40
2017-07-11T04:49:38.568Z,72.50
2017-07-11T04:52:06.652Z,73.40
2017-07-11T04:54:34.719Z,72.90
2017-07-11T04:57:02.805Z,74.00
2017-07-11T04:59:30.892Z,73.00
2017-07-11T05:01:58.960Z,74.20
2017-07-11T05:04:27.027Z,74.50
2017-07-11T05:06:55.116Z,74.10
2017-07-11T05:09:23.951Z,74.30
2017-07-11T05:11:52.006Z,73.10
2017-07-11T05:14:20.080Z,72.50
2017-07-11T05:16:48.123Z,72.20
2017-07-11T05:19:16.174Z,73.70
2017-07-11T05:21:45.020Z,74.40
2017-07-11T05:24:13.082Z,73.70
2017-07-11T05:26:41.190Z,73.90
2017-07-11T05:29:09.227Z,74.60
2017-07-11T05:31:37.300Z,72.80
2017-07-11T05:34:05.391Z,73.30
2017-07-11T05:36:33.459Z,70.70
2017-07-11T05:39:01.516Z,72.20
2017-07-11T05:41:29.618Z,71.70
2017-07-11T05:43:57.708Z,69.70
2017-07-11T05:46:25.796Z,70.70
2017-07-11T05:48:54.620Z,72.50
2017-07-11T05:51:22.676Z,72.50
2017-07-11T05:53:50.743Z,72.30
2017-07-11T05:56:18.796Z,70.50
2017-07-11T05:58:47.632Z,70.70
2017-07-11T06:01:15.687Z,70.70
2017-07-11T06:03:43.755Z,71.10
2017-07-11T06:06:11.824Z,71.00
2017-07-11T06:08:39.883Z,69.50
2017-07-11T06:11:07.959Z,71.20
2017-07-11T06:13:36.087Z,71.70
2017-07-11T06:16:04.890Z,69.20
2017-07-11T06:18:33.007Z,69.00
2017-07-11T06:21:01.063Z,69.60
2017-07-11T06:23:29.164Z,68.10
2017-07-11T06:25:57.224Z,68.30
2017-07-11T06:28:25.307Z,69.50
2017-07-11T06:30:54.138Z,69.30
2017-07-11T06:33:22.207Z,69.30
2017-07-11T06:35:50.295Z,70.10
2017-07-11T06:38:18.355Z,69.80
2017-07-11T06:40:46.417Z,70.40
2017-07-11T06:43:14.513Z,70.30
2017-07-11T06:45:42.592Z,70.00
2017-07-11T06:48:10.648Z,69.90
2017-07-11T06:50:38.716Z,70.00
2017-07-11T06:53:06.796Z,68.70
2017-07-11T06:55:34.880Z,68.40
2017-07-11T06:58:02.964Z,67.50
2017-07-11T07:00:31.055Z,67.00
2017-07-11T07:02:59.929Z,69.30
2017-07-11T07:05:28.755Z,68.70
2017-07-11T07:07:56.870Z,68.60
2017-07-11T07:10:24.924Z,67.70
2017-07-11T07:12:53.015Z,68.30
2017-07-11T07:15:21.098Z,68.30
2017-07-11T07:17:49.242Z,68.70
2017-07-11T07:20:18.064Z,66.60
2017-07-11T07:22:46.131Z,66.40
2017-07-11T07:25:14.200Z,67.40
2017-07-11T07:27:42.276Z,65.60
2017-07-11T07:30:10.421Z,67.90
2017-07-11T07:32:38.490Z,66.80
2017-07-11T07:35:06.567Z,69.10
2017-07-11T07:37:34.642Z,67.80
2017-07-11T07:40:02.760Z,68.00
2017-07-11T07:42:30.824Z,65.70
2017-07-11T07:44:58.901Z,68.30
2017-07-11T07:47:26.979Z,67.70
2017-07-11T07:49:55.829Z,66.70
2017-07-11T07:52:23.900Z,66.60
2017-07-11T07:54:51.967Z,66.70
2017-07-11T07:57:20.050Z,66.90
2017-07-11T07:59:48.143Z,67.40
2017-07-11T08:02:16.215Z,67.50
2017-07-11T08:04:44.292Z,67.40
2017-07-11T08:07:12.370Z,69.50
2017-07-11T08:09:41.206Z,67.50
2017-07-11T08:12:09.292Z,67.30
2017-07-11T08:14:37.350Z,68.10
2017-07-11T08:17:06.191Z,67.20
2017-07-11T08:19:34.260Z,67.10
2017-07-11T08:22:02.354Z,67.20
2017-07-11T08:24:30.691Z,67.60
2017-07-11T08:26:58.775Z,67.00
2017-07-11T08:29:26.851Z,67.60
2017-07-11T08:31:54.926Z,68.20
2017-07-11T08:34:23.001Z,67.70
2017-07-11T08:36:51.063Z,67.90
2017-07-11T08:39:19.124Z,68.60
2017-07-11T08:41:47.203Z,67.50
2017-07-11T08:44:15.279Z,67.20
2017-07-11T08:46:43.417Z,66.60
2017-07-11T08:49:12.269Z,67.20
2017-07-11T08:51:40.343Z,67.10
2017-07-11T08:54:08.427Z,66.50
2017-07-11T08:56:37.262Z,64.00
2017-07-11T08:59:05.326Z,64.00
2017-07-11T09:01:33.588Z,64.30
2017-07-11T09:04:01.650Z,62.50
2017-07-11T09:06:29.710Z,62.60
2017-07-11T09:08:58.560Z,61.50
2017-07-11T09:11:26.623Z,61.40
2017-07-11T09:13:54.695Z,62.30
2017-07-11T09:16:22.795Z,63.40
2017-07-11T09:18:51.488Z,64.00
2017-07-11T09:21:19.650Z,64.30
2017-07-11T09:23:47.755Z,64.90
2017-07-11T09:26:15.875Z,65.90
2017-07-11T09:28:43.943Z,65.50
2017-07-11T09:31:12.047Z,64.00
2017-07-11T09:33:40.141Z,64.20
2017-07-11T09:36:08.232Z,64.60
2017-07-11T09:38:37.063Z,62.80
2017-07-11T09:41:05.152Z,62.80
2017-07-11T09:43:33.225Z,60.20
2017-07-11T09:46:01.285Z,60.80
2017-07-11T09:48:29.385Z,59.90
2017-07-11T09:50:57.462Z,59.60
2017-07-11T09:53:25.516Z,58.60
2017-07-11T09:55:53.601Z,57.10
2017-07-11T09:58:21.681Z,56.10
2017-07-11T10:00:50.514Z,55.80
2017-07-11T10:03:18.595Z,55.10
2017-07-11T10:05:46.675Z,55.80
2017-07-11T10:08:14.722Z,55.70
2017-07-11T10:10:42.792Z,56.40
2017-07-11T10:13:10.970Z,55.50
2017-07-11T10:15:39.043Z,54.10
2017-07-11T10:18:08.941Z,52.00
2017-07-11T10:20:37.420Z,51.70
2017-07-11T10:23:05.494Z,52.60
2017-07-11T10:25:33.591Z,52.00
2017-07-11T10:28:01.659Z,53.20
2017-07-11T10:30:29.726Z,51.30
2017-07-11T10:32:57.804Z,51.40
2017-07-11T10:35:25.886Z,52.60
2017-07-11T10:37:53.938Z,52.00
2017-07-11T10:40:22.012Z,52.10
2017-07-11T10:42:50.156Z,50.60
2017-07-11T10:45:18.241Z,47.20
2017-07-11T10:47:46.312Z,44.40
2017-07-11T10:50:14.375Z,43.60
2017-07-11T10:52:42.449Z,44.40
2017-07-11T10:55:10.526Z,43.20
2017-07-11T10:57:38.624Z,45.00
2017-07-11T11:00:06.827Z,44.60
2017-07-11T11:02:34.882Z,45.30
2017-07-11T11:05:02.947Z,43.50
2017-07-11T11:07:31.023Z,41.40
2017-07-11T11:09:59.111Z,41.30
2017-07-11T11:12:27.159Z,40.30
2017-07-11T11:14:55.236Z,42.10
2017-07-11T11:17:24.076Z,42.00
2017-07-11T11:19:52.189Z,42.00
2017-07-11T11:22:20.267Z,42.40
2017-07-11T11:24:49.133Z,42.40
2017-07-11T11:27:17.187Z,42.40
2017-07-11T11:29:45.249Z,42.80
2017-07-11T11:32:13.370Z,41.20
2017-07-11T11:34:42.191Z,37.60
2017-07-11T11:37:10.264Z,37.50
2017-07-11T11:39:38.429Z,36.20
2017-07-11T11:42:07.221Z,33.10
2017-07-11T11:44:35.296Z,32.90
2017-07-11T11:47:03.361Z,32.90
2017-07-11T11:49:31.447Z,34.50
2017-07-11T11:51:59.521Z,33.40
2017-07-11T11:54:27.612Z,33.00
2017-07-11T11:56:55.664Z,33.10
2017-07-11T11:59:23.728Z,33.80
2017-07-11T12:01:51.835Z,36.50
2017-07-11T12:04:19.872Z,38.80
2017-07-11T12:06:48.596Z,40.40
2017-07-11T12:09:16.644Z,41.70
2017-07-11T12:11:44.717Z,41.70
2017-07-11T12:14:12.810Z,41.70
2017-07-11T12:16:40.862Z,42.50
2017-07-11T12:19:08.941Z,42.10
2017-07-11T12:21:37.047Z,42.90
2017-07-11T12:24:05.114Z,43.70
2017-07-11T12:26:33.211Z,43.90
2017-07-11T12:29:02.054Z,43.90
2017-07-11T12:31:30.125Z,43.90
2017-07-11T12:33:58.204Z,43.40
2017-07-11T12:36:27.140Z,44.90
2017-07-11T12:38:55.976Z,45.00
2017-07-11T12:41:24.052Z,44.40
2017-07-11T12:43:52.128Z,45.00
2017-07-11T12:46:20.201Z,45.30
2017-07-11T12:48:48.263Z,45.40
2017-07-11T12:51:16.321Z,43.50
2017-07-11T12:53:44.391Z,43.10
2017-07-11T12:56:12.452Z,42.80
2017-07-11T12:58:40.504Z,41.90
2017-07-11T13:01:08.584Z,41.90
2017-07-11T13:03:36.639Z,42.20
2017-07-11T13:06:05.595Z,43.10
2017-07-11T13:08:34.451Z,43.00
2017-07-11T13:11:02.512Z,43.00
2017-07-11T13:13:30.609Z,42.90
2017-07-11T13:15:58.684Z,42.30
2017-07-11T13:18:26.740Z,42.80
2017-07-11T13:20:54.836Z,41.70
2017-07-11T13:23:22.922Z,41.30
2017-07-11T13:25:50.968Z,41.80
2017-07-11T13:28:19.059Z,40.50
2017-07-11T13:30:47.118Z,41.40
2017-07-11T13:33:15.175Z,41.60
2017-07-11T13:35:43.251Z,41.70
2017-07-11T13:38:11.293Z,41.20
2017-07-11T13:40:40.000Z,42.30
2017-07-11T13:43:08.092Z,42.50
2017-07-11T13:45:36.181Z,42.70
2017-07-11T13:48:04.725Z,43.50
2017-07-11T13:50:32.815Z,45.00
2017-07-11T13:53:00.898Z,43.90
2017-07-11T13:55:28.943Z,43.90
2017-07-11T13:57:57.016Z,44.10
2017-07-11T14:00:25.088Z,43.80
2017-07-11T14:02:53.188Z,43.60
2017-07-11T14:05:21.248Z,44.40
2017-07-11T14:07:49.313Z,43.90
2017-07-11T14:10:17.416Z,43.00
2017-07-11T14:12:48.995Z,43.10
2017-07-11T14:15:17.819Z,43.30
2017-07-11T14:17:45.887Z,43.20
2017-07-11T14:20:13.948Z,43.50
2017-07-11T14:22:42.031Z,43.40
2017-07-11T14:25:10.111Z,43.20
2017-07-11T14:27:38.156Z,43.20
2017-07-11T14:30:06.257Z,43.10
2017-07-11T14:32:34.889Z,42.60
2017-07-11T14:35:03.698Z,43.10
2017-07-11T14:37:31.772Z,43.00
2017-07-11T14:39:59.851Z,42.50
2017-07-11T14:42:27.984Z,43.70
2017-07-11T14:44:55.998Z,43.30
2017-07-11T14:47:24.065Z,43.70
2017-07-11T14:49:52.157Z,42.90
2017-07-11T14:52:20.231Z,43.30
2017-07-11T14:54:48.267Z,42.90
2017-07-11T14:57:16.347Z,43.50
2017-07-11T14:59:44.425Z,44.20
2017-07-11T15:02:12.479Z,44.20
2017-07-11T15:04:40.564Z,44.40
2017-07-11T15:07:09.488Z,44.50
2017-07-11T15:09:37.550Z,44.10
2017-07-11T15:12:05.624Z,44.10
2017-07-11T15:14:33.684Z,44.50
2017-07-11T15:17:01.729Z,43.70
2017-07-11T15:19:29.812Z,44.80
2017-07-11T15:21:57.877Z,45.00
2017-07-11T15:24:25.944Z,44.60
2017-07-11T15:26:54.050Z,44.40
2017-07-11T15:29:22.108Z,44.10
2017-07-11T15:31:50.164Z,43.80
2017-07-11T15:34:18.263Z,43.90
2017-07-11T15:36:46.309Z,44.80
2017-07-11T15:39:14.382Z,45.20
2017-07-11T15:41:42.432Z,45.20
2017-07-11T15:44:10.503Z,44.90
2017-07-11T15:46:38.640Z,44.30
2017-07-11T15:49:07.476Z,43.10
2017-07-11T15:51:35.544Z,43.00
2017-07-11T15:54:03.603Z,43.50
2017-07-11T15:56:31.687Z,43.40
2017-07-11T15:58:59.743Z,43.60
2017-07-11T16:01:27.826Z,43.30
2017-07-11T16:03:55.910Z,43.30
2017-07-11T16:06:23.975Z,43.70
2017-07-11T16:08:52.031Z,43.60
2017-07-11T16:11:20.095Z,43.00
2017-07-11T16:13:48.173Z,43.00
2017-07-11T16:16:16.256Z,43.00
2017-07-11T16:18:44.358Z,45.30
2017-07-11T16:21:12.435Z,47.40
2017-07-11T16:23:40.548Z,47.80
2017-07-11T16:26:08.600Z,48.40
2017-07-11T16:28:37.879Z,48.40
2017-07-11T16:31:06.044Z,48.60
2017-07-11T16:33:34.864Z,49.30
2017-07-11T16:36:02.932Z,49.30
2017-07-11T16:38:31.000Z,49.50
2017-07-11T16:40:59.088Z,49.50
2017-07-11T16:43:27.158Z,50.00
2017-07-11T16:45:55.240Z,50.20
2017-07-11T16:48:23.293Z,50.20
2017-07-11T16:50:51.364Z,50.00
2017-07-11T16:53:19.421Z,50.50
2017-07-11T16:55:47.497Z,50.30
2017-07-11T16:58:15.559Z,50.30
2017-07-11T17:00:43.639Z,50.10
2017-07-11T17:03:11.721Z,50.10
2017-07-11T17:05:39.792Z,50.30
2017-07-11T17:08:07.845Z,50.30
2017-07-11T17:10:35.927Z,50.90
2017-07-11T17:13:03.985Z,51.10
2017-07-11T17:15:32.060Z,50.60
2017-07-11T17:18:00.131Z,51.20
2017-07-11T17:20:30.847Z,51.50
2017-07-11T17:22:58.963Z,51.50
2017-07-11T17:25:27.008Z,51.20
2017-07-11T17:27:55.592Z,51.60
2017-07-11T17:30:24.500Z,51.50
2017-07-11T17:32:52.572Z,51.80
2017-07-11T17:35:20.648Z,51.70
2017-07-11T17:37:49.487Z,51.40
2017-07-11T17:40:19.240Z,51.40
2017-07-11T17:42:47.311Z,50.90
2017-07-11T17:45:15.368Z,50.80
2017-07-11T17:47:43.440Z,50.90
2017-07-11T17:50:11.500Z,51.10
2017-07-11T17:52:39.586Z,51.20
2017-07-11T17:55:07.648Z,51.50
2017-07-11T17:57:37.314Z,51.60
2017-07-11T18:00:06.104Z,51.70
2017-07-11T18:02:34.233Z,51.70
2017-07-11T18:05:02.279Z,52.00
2017-07-11T18:07:30.347Z,52.00
2017-07-11T18:09:58.415Z,52.00
2017-07-11T18:12:26.503Z,51.90
2017-07-11T18:14:54.617Z,52.20
2017-07-11T18:17:22.672Z,52.30
2017-07-11T18:19:50.742Z,52.50
2017-07-11T18:22:20.089Z,52.60
2017-07-11T18:24:48.186Z,52.50
2017-07-11T18:27:16.265Z,52.40
2017-07-11T18:29:44.335Z,52.60
2017-07-11T18:32:12.443Z,52.60
2017-07-11T18:34:41.264Z,53.10
2017-07-11T18:37:09.341Z,53.00
2017-07-11T18:39:37.431Z,53.10
2017-07-11T18:42:05.504Z,53.40
2017-07-11T18:44:33.556Z,53.40
2017-07-11T18:47:01.622Z,53.40
2017-07-11T18:49:29.726Z,53.90
2017-07-11T18:51:57.789Z,53.70
2017-07-11T18:54:25.879Z,54.40
2017-07-11T18:56:53.945Z,54.40
2017-07-11T18:59:22.016Z,54.50
2017-07-11T19:01:50.095Z,54.70
2017-07-11T19:04:18.944Z,55.10
2017-07-11T19:06:47.015Z,55.00
2017-07-11T19:09:15.069Z,55.10
2017-07-11T19:11:43.146Z,55.00
2017-07-11T19:14:11.249Z,55.10
2017-07-11T19:16:39.317Z,55.20
2017-07-11T19:19:07.406Z,55.60
2017-07-11T19:21:35.525Z,55.30
2017-07-11T19:24:03.627Z,55.50
2017-07-11T19:26:31.723Z,55.90
2017-07-11T19:28:59.799Z,56.30
2017-07-11T19:31:27.868Z,56.30
2017-07-11T19:33:55.950Z,56.20
2017-07-11T19:36:24.794Z,56.70
2017-07-11T19:38:52.864Z,56.00
2017-07-11T19:41:20.985Z,56.50
2017-07-11T19:43:49.071Z,56.60
2017-07-11T19:46:17.984Z,57.30
2017-07-11T19:48:46.073Z,57.30
2017-07-11T19:51:14.152Z,57.40
2017-07-11T19:53:42.255Z,57.40
2017-07-11T19:56:10.381Z,57.40
2017-07-11T19:58:38.511Z,57.40
2017-07-11T20:01:07.362Z,57.30
2017-07-11T20:03:35.618Z,57.30
2017-07-11T20:06:03.690Z,57.10
2017-07-11T20:08:46.081Z,57.30
2017-07-11T20:11:14.898Z,57.90
2017-07-11T20:13:42.986Z,57.80
2017-07-11T20:16:11.048Z,57.90
2017-07-11T20:18:39.124Z,58.40
2017-07-11T20:21:07.208Z,60.40
2017-07-11T20:23:35.266Z,62.50
2017-07-11T20:26:03.376Z,64.20
2017-07-11T20:28:32.234Z,69.70
2017-07-11T20:31:00.335Z,69.40
2017-07-11T20:33:28.429Z,71.40
2017-07-11T20:35:57.239Z,72.70
2017-07-11T20:38:25.328Z,72.50
2017-07-11T20:40:53.383Z,73.80
2017-07-11T20:43:21.504Z,73.80
2017-07-11T20:45:49.553Z,74.20
2017-07-11T20:48:17.619Z,74.60
2017-07-11T20:50:45.700Z,74.90
2017-07-11T20:53:13.781Z,75.20
2017-07-11T20:55:41.843Z,74.50
2017-07-11T20:58:09.926Z,73.70
2017-07-11T21:00:37.971Z,73.20
2017-07-11T21:03:06.087Z,74.00
2017-07-11T21:05:34.909Z,73.50
2017-07-11T21:08:02.983Z,73.40
2017-07-11T21:10:31.064Z,76.00
2017-07-11T21:12:59.147Z,76.50
2017-07-11T21:15:27.204Z,78.70
2017-07-11T21:17:55.284Z,79.20
2017-07-11T21:20:23.348Z,79.40
2017-07-11T21:22:51.402Z,79.40
2017-07-11T21:25:19.499Z,78.50
2017-07-11T21:27:47.564Z,78.70
2017-07-11T21:30:15.720Z,79.60
2017-07-11T21:32:44.537Z,79.60
2017-07-11T21:35:12.596Z,79.50
2017-07-11T21:37:40.815Z,79.80
2017-07-11T21:40:08.883Z,79.10
2017-07-11T21:42:36.981Z,79.90
2017-07-11T21:45:05.048Z,79.60
2017-07-11T21:47:33.884Z,77.90
2017-07-11T21:50:01.963Z,77.90
2017-07-11T21:52:30.023Z,78.00
2017-07-11T21:54:58.095Z,77.20
2017-07-11T21:57:26.156Z,77.50
2017-07-11T21:59:54.220Z,77.10
2017-07-11T22:02:22.284Z,76.40
2017-07-11T22:04:50.357Z,77.20
2017-07-11T22:07:18.444Z,77.40
2017-07-11T22:09:46.503Z,77.60
2017-07-11T22:12:14.588Z,77.80
2017-07-11T22:14:42.656Z,76.90
2017-07-11T22:17:10.724Z,76.50
2017-07-11T22:19:38.803Z,76.40
2017-07-11T22:22:06.876Z,74.20
2017-07-11T22:24:34.932Z,75.50
2017-07-11T22:27:03.051Z,75.80
2017-07-11T22:29:31.122Z,76.10
2017-07-11T22:31:59.195Z,76.20
2017-07-11T22:34:27.263Z,76.10
2017-07-11T22:36:55.336Z,75.80
2017-07-11T22:39:23.412Z,76.20
2017-07-11T22:41:51.496Z,77.40
2017-07-11T22:44:20.338Z,76.50
2017-07-11T22:46:48.404Z,76.40
2017-07-11T22:49:16.523Z,76.80
2017-07-11T22:51:44.575Z,77.10
2017-07-11T22:54:12.636Z,77.90
2017-07-11T22:56:40.748Z,76.80
2017-07-11T22:59:08.803Z,75.50
2017-07-11T23:01:36.867Z,75.30
2017-07-11T23:04:04.936Z,76.40
2017-07-11T23:06:33.010Z,74.90
2017-07-11T23:09:01.074Z,75.40
2017-07-11T23:11:29.147Z,75.60
2017-07-11T23:13:57.251Z,76.80
2017-07-11T23:16:25.345Z,76.40
2017-07-11T23:18:53.420Z,75.10
2017-07-11T23:21:21.468Z,74.80
2017-07-11T23:23:49.554Z,74.60
2017-07-11T23:26:18.394Z,73.90
2017-07-11T23:28:46.455Z,72.90
2017-07-11T23:31:14.543Z,73.40
2017-07-11T23:33:42.607Z,74.00
2017-07-11T23:36:10.679Z,73.40
2017-07-11T23:38:38.764Z,73.20
2017-07-11T23:41:06.825Z,73.70
2017-07-11T23:43:34.881Z,72.80
2017-07-11T23:46:02.967Z,72.60
2017-07-11T23:48:31.046Z,73.70
2017-07-11T23:50:59.115Z,74.00
2017-07-11T23:53:27.204Z,74.60
2017-07-11T23:55:55.284Z,74.60
2017-07-11T23:58:23.352Z,74.10
